createdAt,value
2018-04-08T00:01:41.961Z,95979.86
2018-04-08T00:04:09.596Z,95981.09
2018-04-08T00:06:37.123Z,95974.11
2018-04-08T00:09:05.583Z,95964.77
2018-04-08T00:11:33.874Z,95959.43
2018-04-08T00:14:01.434Z,95958.92
2018-04-08T00:16:29.566Z,95956.61
2018-04-08T00:18:57.130Z,95956.09
2018-04-08T00:21:24.692Z,95958.52
2018-04-08T00:23:52.222Z,95955.66
2018-04-08T00:26:19.722Z,95955.56
2018-04-08T00:28:47.217Z,95952.70
2018-04-08T00:31:14.777Z,95946.73
2018-04-08T00:33:42.324Z,95940.39
2018-04-08T00:36:09.885Z,95936.75
2018-04-08T00:38:37.451Z,95931.52
2018-04-08T00:41:05.110Z,95930.36
2018-04-08T00:43:32.650Z,95926.11
2018-04-08T00:46:00.218Z,95918.27
2018-04-08T00:48:28.377Z,95925.16
2018-04-08T00:50:55.930Z,95923.53
2018-04-08T00:53:23.834Z,95908.83
2018-04-08T00:55:51.406Z,95917.43
2018-04-08T00:58:18.941Z,95908.33
2018-04-08T01:00:47.393Z,95900.08
2018-04-08T01:03:15.052Z,95900.78
2018-04-08T01:05:42.591Z,95892.53
2018-04-08T01:08:10.155Z,95893.05
2018-04-08T01:10:37.722Z,95889.69
2018-04-08T01:13:05.381Z,95892.87
2018-04-08T01:15:32.932Z,95884.17
2018-04-08T01:18:00.412Z,95884.08
2018-04-08T01:20:28.077Z,95882.48
2018-04-08T01:22:55.571Z,95882.59
2018-04-08T01:25:23.061Z,95876.77
2018-04-08T01:27:50.588Z,95868.39
2018-04-08T01:30:18.084Z,95870.17
2018-04-08T01:32:45.573Z,95867.34
2018-04-08T01:35:13.602Z,95864.78
2018-04-08T01:37:43.087Z,95860.75
2018-04-08T01:40:10.659Z,95860.75
2018-04-08T01:42:38.196Z,95851.70
2018-04-08T01:45:06.045Z,95852.59
2018-04-08T01:47:33.673Z,95850.05
2018-04-08T01:50:01.183Z,95843.13
2018-04-08T01:52:28.694Z,95840.16
2018-04-08T01:54:56.227Z,95837.59
2018-04-08T01:57:23.832Z,95835.07
2018-04-08T01:59:51.344Z,95828.67
2018-04-08T02:02:21.391Z,95824.05
2018-04-08T02:04:48.965Z,95823.30
2018-04-08T02:07:16.486Z,95818.92
2018-04-08T02:09:44.030Z,95813.91
2018-04-08T02:12:11.574Z,95807.73
2018-04-08T02:14:40.078Z,95807.70
2018-04-08T02:17:08.057Z,95803.78
2018-04-08T02:19:36.097Z,95808.15
2018-04-08T02:22:03.683Z,95801.75
2018-04-08T02:24:32.735Z,95806.28
2018-04-08T02:27:00.265Z,95806.17
2018-04-08T02:29:27.817Z,95803.42
2018-04-08T02:31:56.158Z,95797.23
2018-04-08T02:34:25.363Z,95798.27
2018-04-08T02:36:53.789Z,95801.56
2018-04-08T02:39:21.509Z,95792.77
2018-04-08T02:41:49.046Z,95787.23
2018-04-08T02:44:17.300Z,95790.06
2018-04-08T02:46:46.470Z,95784.05
2018-04-08T02:49:14.201Z,95779.52
2018-04-08T02:51:41.750Z,95780.09
2018-04-08T02:54:09.355Z,95777.78
2018-04-08T02:56:37.282Z,95775.62
2018-04-08T02:59:05.324Z,95774.25
2018-04-08T03:01:33.196Z,95774.13
2018-04-08T03:04:00.753Z,95772.27
2018-04-08T03:06:28.278Z,95768.13
2018-04-08T03:08:55.825Z,95761.81
2018-04-08T03:11:23.614Z,95759.48
2018-04-08T03:13:52.128Z,95756.48
2018-04-08T03:16:19.824Z,95753.19
2018-04-08T03:18:47.391Z,95747.58
2018-04-08T03:21:14.969Z,95743.09
2018-04-08T03:23:42.510Z,95736.90
2018-04-08T03:26:10.019Z,95740.59
2018-04-08T03:28:37.522Z,95732.12
2018-04-08T03:31:05.008Z,95733.58
2018-04-08T03:33:32.499Z,95733.25
2018-04-08T03:36:00.945Z,95729.48
2018-04-08T03:38:28.439Z,95735.22
2018-04-08T03:40:55.956Z,95727.70
2018-04-08T03:43:23.807Z,95734.21
2018-04-08T03:45:51.830Z,95726.18
2018-04-08T03:48:19.385Z,95731.70
2018-04-08T03:50:46.923Z,95730.66
2018-04-08T03:53:14.454Z,95719.83
2018-04-08T03:55:42.009Z,95719.58
2018-04-08T03:58:09.668Z,95717.87
2018-04-08T04:00:38.486Z,95714.89
2018-04-08T04:03:06.180Z,95707.73
2018-04-08T04:05:33.724Z,95703.08
2018-04-08T04:08:01.296Z,95706.62
2018-04-08T04:10:28.832Z,95706.34
2018-04-08T04:12:56.366Z,95700.34
2018-04-08T04:15:23.925Z,95702.11
2018-04-08T04:17:51.467Z,95697.06
2018-04-08T04:20:30.672Z,95700.23
2018-04-08T04:23:10.098Z,95697.34
2018-04-08T04:28:37.352Z,95694.84
2018-04-08T04:31:04.922Z,95691.98
2018-04-08T04:33:32.793Z,95687.77
2018-04-08T04:36:00.300Z,95689.22
2018-04-08T04:38:28.945Z,95697.56
2018-04-08T04:40:56.597Z,95702.41
2018-04-08T04:43:24.153Z,95696.83
2018-04-08T04:45:53.134Z,95695.47
2018-04-08T04:48:20.751Z,95692.59
2018-04-08T04:50:48.296Z,95701.98
2018-04-08T04:53:15.786Z,95696.70
2018-04-08T04:55:43.270Z,95694.19
2018-04-08T04:58:10.768Z,95691.70
2018-04-08T05:00:39.207Z,95680.31
2018-04-08T05:03:06.787Z,95686.67
2018-04-08T05:05:34.332Z,95692.34
2018-04-08T05:08:01.874Z,95685.88
2018-04-08T05:10:29.472Z,95687.80
2018-04-08T05:12:57.169Z,95685.89
2018-04-08T05:15:24.693Z,95686.48
2018-04-08T05:17:52.255Z,95681.04
2018-04-08T05:20:19.797Z,95683.45
2018-04-08T05:22:47.335Z,95681.29
2018-04-08T05:25:14.891Z,95676.38
2018-04-08T05:27:44.053Z,95679.02
2018-04-08T05:30:11.630Z,95675.16
2018-04-08T05:32:39.189Z,95668.59
2018-04-08T05:35:06.759Z,95666.11
2018-04-08T05:37:35.009Z,95666.67
2018-04-08T05:40:02.573Z,95659.66
2018-04-08T05:42:30.121Z,95661.63
2018-04-08T05:44:57.688Z,95660.34
2018-04-08T05:47:25.234Z,95661.63
2018-04-08T05:49:52.773Z,95650.57
2018-04-08T05:52:20.351Z,95650.13
2018-04-08T05:54:47.881Z,95649.84
2018-04-08T05:57:16.090Z,95648.34
2018-04-08T05:59:44.439Z,95653.06
2018-04-08T06:02:12.133Z,95650.20
2018-04-08T06:04:41.299Z,95654.23
2018-04-08T06:07:09.083Z,95656.64
2018-04-08T06:09:37.453Z,95650.27
2018-04-08T06:12:05.940Z,95649.09
2018-04-08T06:14:34.653Z,95641.47
2018-04-08T06:17:02.200Z,95645.14
2018-04-08T06:19:29.740Z,95645.28
2018-04-08T06:21:59.208Z,95647.27
2018-04-08T06:24:28.386Z,95641.90
2018-04-08T06:29:46.081Z,95640.25
2018-04-08T06:32:13.587Z,95644.30
2018-04-08T06:34:41.096Z,95648.19
2018-04-08T06:37:08.591Z,95639.41
2018-04-08T06:39:36.076Z,95645.03
2018-04-08T06:42:05.135Z,95641.63
2018-04-08T06:44:34.455Z,95630.67
2018-04-08T06:47:02.055Z,95637.00
2018-04-08T06:49:29.658Z,95634.14
2018-04-08T06:51:57.204Z,95630.66
2018-04-08T06:54:24.815Z,95629.45
2018-04-08T06:56:52.541Z,95628.70
2018-04-08T06:59:20.034Z,95630.26
2018-04-08T07:01:47.571Z,95627.42
2018-04-08T07:04:15.202Z,95627.42
2018-04-08T07:06:42.681Z,95621.53
2018-04-08T07:09:10.427Z,95627.36
2018-04-08T07:11:38.220Z,95620.52
2018-04-08T07:14:05.703Z,95627.39
2018-04-08T07:16:33.199Z,95628.14
2018-04-08T07:19:00.716Z,95632.66
2018-04-08T07:21:28.230Z,95625.29
2018-04-08T07:23:55.718Z,95630.77
2018-04-08T07:26:23.216Z,95627.62
2018-04-08T07:28:51.198Z,95627.56
2018-04-08T07:31:18.981Z,95630.42
2018-04-08T07:33:46.486Z,95626.22
2018-04-08T07:36:14.002Z,95622.89
2018-04-08T07:38:41.492Z,95623.30
2018-04-08T07:41:09.685Z,95622.80
2018-04-08T07:43:37.236Z,95618.53
2018-04-08T07:46:04.792Z,95622.30
2018-04-08T07:48:33.207Z,95620.86
2018-04-08T07:51:00.834Z,95618.55
2018-04-08T07:53:28.578Z,95618.23
2018-04-08T07:55:56.143Z,95616.08
2018-04-08T07:58:23.682Z,95613.48
2018-04-08T08:00:51.215Z,95615.53
2018-04-08T08:03:19.149Z,95607.66
2018-04-08T08:05:46.698Z,95614.56
2018-04-08T08:08:14.442Z,95613.02
2018-04-08T08:10:43.127Z,95606.98
2018-04-08T08:13:10.861Z,95604.59
2018-04-08T08:15:38.671Z,95602.34
2018-04-08T08:18:06.773Z,95603.43
2018-04-08T08:20:34.741Z,95595.81
2018-04-08T08:23:02.260Z,95596.54
2018-04-08T08:25:29.753Z,95590.50
2018-04-08T08:27:57.238Z,95592.11
2018-04-08T08:30:24.716Z,95592.06
2018-04-08T08:32:52.230Z,95581.80
2018-04-08T08:35:20.225Z,95589.38
2018-04-08T08:37:49.561Z,95582.83
2018-04-08T08:40:17.143Z,95581.44
2018-04-08T08:42:44.674Z,95578.87
2018-04-08T08:45:12.528Z,95580.66
2018-04-08T08:47:40.044Z,95574.52
2018-04-08T08:53:12.296Z,95585.28
2018-04-08T08:55:39.888Z,95577.03
2018-04-08T08:58:07.425Z,95584.73
2018-04-08T09:00:34.951Z,95582.64
2018-04-08T09:03:02.522Z,95578.61
2018-04-08T09:20:35.738Z,95566.17
2018-04-08T09:23:21.951Z,95564.53
2018-04-08T09:26:01.217Z,95564.97
2018-04-08T09:28:28.713Z,95560.37
2018-04-08T09:30:56.204Z,95555.55
2018-04-08T09:33:24.798Z,95554.08
2018-04-08T09:35:52.603Z,95550.43
2018-04-08T09:38:20.301Z,95554.42
2018-04-08T09:40:47.845Z,95545.31
2018-04-08T09:43:15.795Z,95539.45
2018-04-08T09:45:43.344Z,95537.91
2018-04-08T09:48:10.887Z,95545.38
2018-04-08T09:50:40.044Z,95542.14
2018-04-08T09:53:07.658Z,95538.75
2018-04-08T09:55:35.264Z,95542.73
2018-04-08T09:58:03.757Z,95530.45
2018-04-08T10:00:38.266Z,95533.86
2018-04-08T10:03:11.920Z,95534.41
2018-04-08T10:05:39.608Z,95531.62
2018-04-08T10:08:07.083Z,95532.56
2018-04-08T10:10:38.424Z,95534.16
2018-04-08T10:13:06.386Z,95530.83
2018-04-08T10:15:34.789Z,95522.52
2018-04-08T10:18:07.366Z,95527.66
2018-04-08T10:20:39.077Z,95529.23
2018-04-08T10:23:07.261Z,95522.05
2018-04-08T10:25:34.861Z,95522.17
2018-04-08T10:28:02.594Z,95522.00
2018-04-08T10:30:30.122Z,95521.09
2018-04-08T10:32:57.613Z,95517.91
2018-04-08T10:35:25.472Z,95511.24
2018-04-08T10:37:57.990Z,95504.26
2018-04-08T10:40:25.601Z,95500.52
2018-04-08T10:42:53.185Z,95510.70
2018-04-08T10:45:20.822Z,95505.52
2018-04-08T10:47:50.039Z,95498.86
2018-04-08T10:50:17.710Z,95499.00
2018-04-08T10:52:45.494Z,95498.83
2018-04-08T10:57:51.172Z,95498.28
2018-04-08T11:00:18.722Z,95502.73
2018-04-08T11:02:46.277Z,95500.47
2018-04-08T11:05:13.897Z,95496.19
2018-04-08T11:07:41.503Z,95498.56
2018-04-08T11:10:09.112Z,95497.74
2018-04-08T11:12:36.660Z,95501.33
2018-04-08T11:15:04.266Z,95495.63
2018-04-08T11:17:31.843Z,95495.30
2018-04-08T11:19:59.408Z,95499.20
2018-04-08T11:22:28.298Z,95501.02
2018-04-08T11:24:56.254Z,95497.31
2018-04-08T11:27:24.121Z,95493.70
2018-04-08T11:29:51.670Z,95490.27
2018-04-08T11:32:19.293Z,95483.44
2018-04-08T11:34:46.852Z,95484.98
2018-04-08T11:37:14.400Z,95489.23
2018-04-08T11:39:41.981Z,95480.34
2018-04-08T11:42:09.555Z,95476.93
2018-04-08T11:44:38.218Z,95473.73
2018-04-08T11:47:06.431Z,95473.45
2018-04-08T11:49:33.942Z,95462.84
2018-04-08T11:52:01.438Z,95461.91
2018-04-08T11:54:28.924Z,95461.56
2018-04-08T11:56:56.430Z,95466.52
2018-04-08T11:59:24.135Z,95458.30
2018-04-08T12:01:51.775Z,95456.72
2018-04-08T12:04:19.336Z,95452.56
2018-04-08T12:06:46.883Z,95455.59
2018-04-08T12:09:14.463Z,95449.89
2018-04-08T12:11:42.013Z,95445.34
2018-04-08T12:14:09.565Z,95445.95
2018-04-08T12:16:37.161Z,95442.47
2018-04-08T12:19:04.785Z,95446.81
2018-04-08T12:21:33.580Z,95442.30
2018-04-08T12:24:01.151Z,95443.81
2018-04-08T12:29:32.787Z,95444.00
2018-04-08T12:32:00.264Z,95448.23
2018-04-08T12:34:27.738Z,95440.11
2018-04-08T12:36:55.248Z,95435.00
2018-04-08T12:39:22.718Z,95437.83
2018-04-08T12:41:50.473Z,95442.58
2018-04-08T12:44:18.006Z,95437.63
2018-04-08T12:46:45.484Z,95440.15
2018-04-08T12:49:13.046Z,95433.04
2018-04-08T12:51:40.807Z,95428.33
2018-04-08T12:54:08.572Z,95420.95
2018-04-08T12:56:38.342Z,95430.52
2018-04-08T12:59:06.200Z,95425.48
2018-04-08T13:01:33.755Z,95429.11
2018-04-08T13:04:01.278Z,95421.31
2018-04-08T13:06:29.771Z,95421.87
2018-04-08T13:08:57.319Z,95421.20
2018-04-08T13:11:25.075Z,95409.05
2018-04-08T13:13:53.507Z,95417.79
2018-04-08T13:16:21.052Z,95405.52
2018-04-08T13:18:48.593Z,95410.73
2018-04-08T13:21:16.077Z,95410.87
2018-04-08T13:23:43.556Z,95409.02
2018-04-08T13:26:11.039Z,95403.97
2018-04-08T13:28:38.547Z,95405.78
2018-04-08T13:31:07.048Z,95404.67
2018-04-08T13:33:34.948Z,95402.17
2018-04-08T13:36:04.064Z,95398.94
2018-04-08T13:38:34.090Z,95395.01
2018-04-08T13:41:02.721Z,95399.38
2018-04-08T13:43:30.533Z,95399.11
2018-04-08T13:46:00.482Z,95401.77
2018-04-08T13:48:28.205Z,95394.13
2018-04-08T13:50:55.727Z,95401.06
2018-04-08T13:53:23.564Z,95383.00
2018-04-08T13:55:52.140Z,95389.29
2018-04-08T13:58:19.617Z,95388.80
2018-04-08T14:00:47.187Z,95389.16
2018-04-08T14:03:14.909Z,95388.51
2018-04-08T14:05:44.959Z,95384.27
2018-04-08T14:08:12.724Z,95381.07
2018-04-08T14:10:42.412Z,95371.34
2018-04-08T14:13:10.140Z,95382.17
2018-04-08T14:15:37.684Z,95377.73
2018-04-08T14:18:05.228Z,95374.70
2018-04-08T14:20:32.710Z,95374.02
2018-04-08T14:23:00.215Z,95380.39
2018-04-08T14:25:27.910Z,95374.19
2018-04-08T14:27:55.811Z,95369.75
2018-04-08T14:30:23.365Z,95359.73
2018-04-08T14:32:52.017Z,95362.02
2018-04-08T14:35:19.538Z,95365.79
2018-04-08T14:37:50.857Z,95360.83
2018-04-08T14:40:18.932Z,95361.59
2018-04-08T14:42:46.599Z,95364.27
2018-04-08T14:45:14.365Z,95362.97
2018-04-08T14:47:42.027Z,95361.38
2018-04-08T14:50:17.530Z,95358.46
2018-04-08T14:52:51.384Z,95355.51
2018-04-08T14:55:22.101Z,95350.11
2018-04-08T14:57:54.517Z,95352.89
2018-04-08T15:00:22.271Z,95350.95
2018-04-08T15:02:49.890Z,95340.28
2018-04-08T15:05:22.339Z,95347.47
2018-04-08T15:07:50.278Z,95342.54
2018-04-08T15:10:17.835Z,95340.31
2018-04-08T15:12:45.482Z,95342.92
2018-04-08T15:15:13.095Z,95333.04
2018-04-08T15:17:40.994Z,95336.48
2018-04-08T15:20:08.542Z,95340.78
2018-04-08T15:22:36.630Z,95338.42
2018-04-08T15:25:04.320Z,95338.05
2018-04-08T15:27:37.761Z,95335.16
2018-04-08T15:30:05.282Z,95321.25
2018-04-08T15:32:33.977Z,95324.21
2018-04-08T15:35:01.511Z,95328.47
2018-04-08T15:37:29.048Z,95326.92
2018-04-08T15:39:56.698Z,95329.37
2018-04-08T15:42:24.349Z,95329.96
2018-04-08T15:44:51.885Z,95330.23
2018-04-08T15:47:19.484Z,95320.23
2018-04-08T15:49:50.570Z,95321.80
2018-04-08T15:52:18.756Z,95322.91
2018-04-08T15:54:46.415Z,95323.42
2018-04-08T15:57:13.995Z,95321.93
2018-04-08T15:59:41.573Z,95318.88
2018-04-08T16:02:09.177Z,95315.42
2018-04-08T16:04:36.852Z,95317.28
2018-04-08T16:07:04.508Z,95316.05
2018-04-08T16:09:32.087Z,95315.59
2018-04-08T16:12:00.505Z,95319.88
2018-04-08T16:14:31.510Z,95318.71
2018-04-08T16:16:59.077Z,95323.75
2018-04-08T16:19:26.678Z,95325.03
2018-04-08T16:21:54.258Z,95323.08
2018-04-08T16:24:21.830Z,95316.70
2018-04-08T16:26:49.438Z,95322.37
2018-04-08T16:29:17.219Z,95321.67
2018-04-08T16:31:46.460Z,95320.31
2018-04-08T16:34:14.281Z,95320.27
2018-04-08T16:36:41.873Z,95327.48
2018-04-08T16:39:09.460Z,95326.77
2018-04-08T16:41:37.062Z,95321.45
2018-04-08T16:44:04.611Z,95319.35
2018-04-08T16:46:33.301Z,95327.58
2018-04-08T16:49:00.819Z,95322.01
2018-04-08T16:51:28.361Z,95317.77
2018-04-08T16:53:57.940Z,95316.67
2018-04-08T16:56:25.479Z,95317.77
2018-04-08T16:58:53.005Z,95317.70
2018-04-08T17:01:20.552Z,95321.50
2018-04-08T17:03:48.085Z,95321.31
2018-04-08T17:06:15.611Z,95322.16
2018-04-08T17:08:43.160Z,95325.75
2018-04-08T17:11:10.900Z,95320.88
2018-04-08T17:13:38.501Z,95323.20
2018-04-08T17:16:06.029Z,95322.36
2018-04-08T17:18:34.342Z,95322.44
2018-04-08T17:21:01.845Z,95314.77
2018-04-08T17:23:29.355Z,95329.72
2018-04-08T17:25:58.280Z,95325.48
2018-04-08T17:28:26.019Z,95338.08
2018-04-08T17:30:53.707Z,95337.84
2018-04-08T17:33:21.704Z,95332.39
2018-04-08T17:35:49.540Z,95332.97
2018-04-08T17:38:17.132Z,95332.88
2018-04-08T17:40:45.330Z,95334.28
2018-04-08T17:43:12.974Z,95335.93
2018-04-08T17:45:40.497Z,95335.59
2018-04-08T17:48:08.071Z,95343.09
2018-04-08T17:50:43.366Z,95336.87
2018-04-08T17:53:11.320Z,95341.68
2018-04-08T17:55:39.498Z,95347.24
2018-04-08T17:58:07.043Z,95346.13
2018-04-08T18:00:34.838Z,95355.28
2018-04-08T18:03:02.490Z,95354.77
2018-04-08T18:05:30.024Z,95351.64
2018-04-08T18:07:57.675Z,95353.34
2018-04-08T18:10:25.235Z,95356.02
2018-04-08T18:12:52.922Z,95364.74
2018-04-08T18:15:21.155Z,95369.09
2018-04-08T18:17:48.776Z,95375.63
2018-04-08T18:20:16.307Z,95373.05
2018-04-08T18:22:45.254Z,95374.20
2018-04-08T18:25:13.230Z,95380.20
2018-04-08T18:27:43.229Z,95382.30
2018-04-08T18:30:10.875Z,95386.17
2018-04-08T18:32:40.008Z,95386.38
2018-04-08T18:35:07.559Z,95396.38
2018-04-08T18:37:35.215Z,95390.35
2018-04-08T18:40:04.471Z,95391.89
2018-04-08T18:42:40.130Z,95391.63
2018-04-08T18:45:09.384Z,95393.42
2018-04-08T18:47:38.292Z,95394.28
2018-04-08T18:50:14.610Z,95397.95
2018-04-08T18:52:42.540Z,95398.98
2018-04-08T18:55:10.121Z,95391.70
2018-04-08T18:57:38.974Z,95404.22
2018-04-08T19:00:06.602Z,95409.78
2018-04-08T19:02:34.148Z,95410.95
2018-04-08T19:05:01.733Z,95414.60
2018-04-08T19:07:29.595Z,95420.57
2018-04-08T19:09:57.374Z,95421.75
2018-04-08T19:12:24.865Z,95415.75
2018-04-08T19:14:58.054Z,95419.24
2018-04-08T19:17:31.754Z,95419.81
2018-04-08T19:19:59.310Z,95420.03
2018-04-08T19:22:27.914Z,95413.39
2018-04-08T19:24:56.169Z,95423.81
2018-04-08T19:27:29.799Z,95423.64
2018-04-08T19:29:57.342Z,95427.69
2018-04-08T19:32:24.920Z,95423.91
2018-04-08T19:34:52.451Z,95429.14
2018-04-08T19:37:19.980Z,95421.38
2018-04-08T19:39:47.593Z,95422.29
2018-04-08T19:42:15.155Z,95419.55
2018-04-08T19:44:42.685Z,95421.13
2018-04-08T19:47:11.223Z,95429.82
2018-04-08T19:49:38.871Z,95424.30
2018-04-08T19:52:06.530Z,95426.61
2018-04-08T19:54:34.431Z,95424.80
2018-04-08T19:57:01.947Z,95430.37
2018-04-08T19:59:30.444Z,95433.63
2018-04-08T20:01:58.161Z,95427.85
2018-04-08T20:04:25.794Z,95430.64
2018-04-08T20:06:53.318Z,95430.41
2018-04-08T20:09:20.872Z,95434.05
2018-04-08T20:11:48.371Z,95429.50
2018-04-08T20:14:15.960Z,95436.98
2018-04-08T20:16:43.775Z,95429.11
2018-04-08T20:19:11.649Z,95430.96
2018-04-08T20:21:39.259Z,95433.69
2018-04-08T20:24:06.816Z,95430.98
2018-04-08T20:26:34.466Z,95428.37
2018-04-08T20:29:02.060Z,95431.59
2018-04-08T20:31:30.636Z,95426.75
2018-04-08T20:33:58.197Z,95429.84
2018-04-08T20:36:25.969Z,95426.47
2018-04-08T20:38:53.479Z,95429.45
2018-04-08T20:41:21.003Z,95430.88
2018-04-08T20:43:49.695Z,95429.87
2018-04-08T20:46:17.502Z,95438.08
2018-04-08T20:48:45.061Z,95435.03
2018-04-08T20:51:12.615Z,95434.16
2018-04-08T20:53:41.122Z,95432.41
2018-04-08T20:56:08.614Z,95436.19
2018-04-08T20:58:36.155Z,95430.97
2018-04-08T21:03:54.202Z,95438.23
2018-04-08T21:09:11.955Z,95428.86
2018-04-08T21:11:39.440Z,95429.88
2018-04-08T21:14:06.982Z,95428.27
2018-04-08T21:16:34.531Z,95426.28
2018-04-08T21:19:02.103Z,95426.42
2018-04-08T21:21:29.646Z,95423.59
2018-04-08T21:23:57.792Z,95427.61
2018-04-08T21:26:25.335Z,95427.61
2018-04-08T21:28:52.955Z,95427.20
2018-04-08T21:31:21.012Z,95428.57
2018-04-08T21:33:48.590Z,95425.78
2018-04-08T21:39:06.645Z,95423.95
2018-04-08T21:41:34.137Z,95429.95
2018-04-08T21:44:01.651Z,95432.23
2018-04-08T21:46:29.233Z,95427.34
2018-04-08T21:48:56.884Z,95438.08
2018-04-08T21:51:24.979Z,95447.98
2018-04-08T21:53:52.549Z,95426.28
2018-04-08T21:56:20.201Z,95430.34
2018-04-08T21:58:47.874Z,95428.87
2018-04-08T22:01:15.448Z,95428.87
2018-04-08T22:03:45.032Z,95434.72
2018-04-08T22:06:12.594Z,95429.52
2018-04-08T22:08:40.161Z,95438.91
2018-04-08T22:11:07.989Z,95423.78
2018-04-08T22:13:37.090Z,95427.77
2018-04-08T22:16:04.624Z,95423.11
2018-04-08T22:18:34.459Z,95427.77
2018-04-08T22:21:02.090Z,95417.16
2018-04-08T22:23:30.616Z,95418.70
2018-04-08T22:25:58.197Z,95419.48
2018-04-08T22:28:25.726Z,95418.55
2018-04-08T22:30:53.221Z,95417.88
2018-04-08T22:33:20.963Z,95422.88
2018-04-08T22:35:48.483Z,95422.27
2018-04-08T22:38:16.026Z,95420.30
2018-04-08T22:40:45.353Z,95416.64
2018-04-08T22:43:12.902Z,95412.33
2018-04-08T22:45:40.436Z,95416.22
2018-04-08T22:48:08.017Z,95417.10
2018-04-08T22:50:36.155Z,95415.48
2018-04-08T22:53:03.777Z,95415.16
2018-04-08T22:55:33.119Z,95405.95
2018-04-08T22:58:00.662Z,95409.63
2018-04-08T23:00:28.194Z,95411.19
2018-04-08T23:02:55.698Z,95408.55
2018-04-08T23:05:23.532Z,95414.80
2018-04-08T23:07:51.011Z,95416.52
2018-04-08T23:10:18.477Z,95412.20
2018-04-08T23:12:45.983Z,95407.63
2018-04-08T23:15:13.770Z,95411.49
2018-04-08T23:17:41.456Z,95409.39
2018-04-08T23:20:09.000Z,95407.17
2018-04-08T23:22:36.537Z,95414.58
2018-04-08T23:25:04.084Z,95413.69
2018-04-08T23:27:33.068Z,95406.84
2018-04-08T23:30:00.591Z,95408.73
2018-04-08T23:32:28.416Z,95405.83
2018-04-08T23:34:55.917Z,95404.12
2018-04-08T23:37:23.612Z,95402.28
2018-04-08T23:39:51.151Z,95392.27
2018-04-08T23:45:09.106Z,95397.17
2018-04-08T23:47:36.655Z,95389.91
2018-04-08T23:50:04.206Z,95391.80
2018-04-08T23:52:31.738Z,95380.88
2018-04-08T23:54:59.293Z,95386.31
2018-04-08T23:57:26.838Z,95387.87
2018-04-08T23:59:54.367Z,95383.57
